createdAt,value
2018-06-08T00:01:13.961Z,22.62
2018-06-08T00:03:42.000Z,22.62
2018-06-08T00:06:10.061Z,22.59
2018-06-08T00:08:38.100Z,22.56
2018-06-08T00:11:06.255Z,22.53
2018-06-08T00:13:34.295Z,22.50
2018-06-08T00:16:02.352Z,22.48
2018-06-08T00:18:30.415Z,22.44
2018-06-08T00:20:58.448Z,22.44
2018-06-08T00:23:26.519Z,22.41
2018-06-08T00:25:54.706Z,22.38
2018-06-08T00:28:22.762Z,22.36
2018-06-08T00:30:50.847Z,22.32
2018-06-08T00:33:18.913Z,22.30
2018-06-08T00:35:47.065Z,22.27
2018-06-08T00:38:15.096Z,22.24
2018-06-08T00:40:43.151Z,22.21
2018-06-08T00:43:11.251Z,22.20
2018-06-08T00:45:39.320Z,22.15
2018-06-08T00:48:07.372Z,22.13
2018-06-08T00:50:35.459Z,22.10
2018-06-08T00:53:04.321Z,22.08
2018-06-08T00:55:32.648Z,22.06
2018-06-08T00:58:00.705Z,22.05
2018-06-08T01:00:28.779Z,22.02
2018-06-08T01:02:56.816Z,21.98
2018-06-08T01:05:24.847Z,21.95
2018-06-08T01:07:53.186Z,21.94
2018-06-08T01:10:21.228Z,21.95
2018-06-08T01:12:49.255Z,21.96
2018-06-08T01:15:17.311Z,21.96
2018-06-08T01:17:45.355Z,21.93
2018-06-08T01:20:13.508Z,21.92
2018-06-08T01:22:41.552Z,21.91
2018-06-08T01:25:09.567Z,21.89
2018-06-08T01:27:37.618Z,21.89
2018-06-08T01:30:05.665Z,21.89
2018-06-08T01:32:33.717Z,21.88
2018-06-08T01:35:01.785Z,21.88
2018-06-08T01:37:30.164Z,21.86
2018-06-08T01:39:58.324Z,21.83
2018-06-08T01:42:26.424Z,21.80
2018-06-08T01:44:54.531Z,21.80
2018-06-08T01:47:22.597Z,21.78
2018-06-08T01:49:50.644Z,21.70
2018-06-08T01:52:18.695Z,21.68
2018-06-08T01:54:46.739Z,21.64
2018-06-08T01:57:14.786Z,21.64
2018-06-08T01:59:42.829Z,21.64
2018-06-08T02:02:10.859Z,21.63
2018-06-08T02:04:38.908Z,21.65
2018-06-08T02:07:06.948Z,21.65
2018-06-08T02:09:34.987Z,21.65
2018-06-08T02:12:03.385Z,21.64
2018-06-08T02:14:31.407Z,21.63
2018-06-08T02:16:59.445Z,21.61
2018-06-08T02:19:27.496Z,21.60
2018-06-08T02:21:55.523Z,21.60
2018-06-08T02:24:23.903Z,21.58
2018-06-08T02:26:51.936Z,21.56
2018-06-08T02:29:19.955Z,21.53
2018-06-08T02:31:48.167Z,21.52
2018-06-08T02:34:16.212Z,21.50
2018-06-08T02:36:44.255Z,21.49
2018-06-08T02:39:12.335Z,21.47
2018-06-08T02:41:40.375Z,21.45
2018-06-08T02:44:08.419Z,21.44
2018-06-08T02:46:36.468Z,21.43
2018-06-08T02:49:04.524Z,21.41
2018-06-08T02:51:32.562Z,21.43
2018-06-08T02:54:00.714Z,21.42
2018-06-08T02:56:28.750Z,21.42
2018-06-08T02:58:56.779Z,21.44
2018-06-08T03:01:24.909Z,21.42
2018-06-08T03:03:52.956Z,21.41
2018-06-08T03:06:21.047Z,21.41
2018-06-08T03:08:49.121Z,21.43
2018-06-08T03:11:17.158Z,21.43
2018-06-08T03:13:45.231Z,21.44
2018-06-08T03:16:13.277Z,21.47
2018-06-08T03:18:41.320Z,21.47
2018-06-08T03:21:09.352Z,21.49
2018-06-08T03:23:37.383Z,21.49
2018-06-08T03:26:05.432Z,21.51
2018-06-08T03:28:33.743Z,21.54
2018-06-08T03:31:02.056Z,21.57
2018-06-08T03:33:30.100Z,21.61
2018-06-08T03:35:58.144Z,21.65
2018-06-08T03:38:26.192Z,21.67
2018-06-08T03:40:54.224Z,21.70
2018-06-08T03:43:22.251Z,21.76
2018-06-08T03:45:50.539Z,21.84
2018-06-08T03:48:18.607Z,21.90
2018-06-08T03:50:46.672Z,21.97
2018-06-08T03:53:14.720Z,22.02
2018-06-08T03:55:42.752Z,22.06
2018-06-08T03:58:10.947Z,22.07
2018-06-08T04:00:38.989Z,22.05
2018-06-08T04:03:07.184Z,22.03
2018-06-08T04:05:35.237Z,22.09
2018-06-08T04:08:03.288Z,22.15
2018-06-08T04:10:31.648Z,22.20
2018-06-08T04:12:59.674Z,22.29
2018-06-08T04:15:27.733Z,22.33
2018-06-08T04:17:55.804Z,22.39
2018-06-08T04:20:23.855Z,22.45
2018-06-08T04:22:51.923Z,22.53
2018-06-08T04:25:19.969Z,22.66
2018-06-08T04:27:48.000Z,22.83
2018-06-08T04:30:16.051Z,23.12
2018-06-08T04:32:44.093Z,23.63
2018-06-08T04:35:12.383Z,24.18
2018-06-08T04:37:40.409Z,24.46
2018-06-08T04:40:08.676Z,24.61
2018-06-08T04:42:36.723Z,25.11
2018-06-08T04:45:04.796Z,25.60
2018-06-08T04:47:32.911Z,26.12
2018-06-08T04:50:01.032Z,26.54
2018-06-08T04:52:29.079Z,27.02
2018-06-08T04:54:57.134Z,27.36
2018-06-08T04:57:25.189Z,27.62
2018-06-08T04:59:53.496Z,27.88
2018-06-08T05:02:21.544Z,28.15
2018-06-08T05:04:49.571Z,28.51
2018-06-08T05:07:17.624Z,28.66
2018-06-08T05:09:45.714Z,28.89
2018-06-08T05:12:13.713Z,29.11
2018-06-08T05:14:41.750Z,29.25
2018-06-08T05:17:10.132Z,29.39
2018-06-08T05:19:38.156Z,29.42
2018-06-08T05:22:06.212Z,29.37
2018-06-08T05:24:34.280Z,29.68
2018-06-08T05:27:02.324Z,29.93
2018-06-08T05:29:30.752Z,30.14
2018-06-08T05:31:58.793Z,30.23
2018-06-08T05:34:26.836Z,30.25
2018-06-08T05:36:54.875Z,30.44
2018-06-08T05:39:22.898Z,30.62
2018-06-08T05:41:50.956Z,30.83
2018-06-08T05:44:18.989Z,31.22
2018-06-08T05:46:47.240Z,31.60
2018-06-08T05:49:15.300Z,31.86
2018-06-08T05:51:43.323Z,32.18
2018-06-08T05:54:11.393Z,32.40
2018-06-08T05:56:39.464Z,32.57
2018-06-08T05:59:07.507Z,32.74
2018-06-08T06:01:35.548Z,32.89
2018-06-08T06:04:03.604Z,32.94
2018-06-08T06:06:31.664Z,33.02
2018-06-08T06:08:59.702Z,33.18
2018-06-08T06:11:27.763Z,33.25
2018-06-08T06:13:55.835Z,33.38
2018-06-08T06:16:23.867Z,33.33
2018-06-08T06:18:51.887Z,33.31
2018-06-08T06:21:20.010Z,33.31
2018-06-08T06:23:48.040Z,33.26
2018-06-08T06:26:16.283Z,33.22
2018-06-08T06:28:44.313Z,33.36
2018-06-08T06:31:12.364Z,33.36
2018-06-08T06:33:40.419Z,33.23
2018-06-08T06:36:08.481Z,32.94
2018-06-08T06:38:36.536Z,32.49
2018-06-08T06:41:04.569Z,31.97
2018-06-08T06:43:32.599Z,31.84
2018-06-08T06:46:00.641Z,31.75
2018-06-08T06:48:35.189Z,31.71
2018-06-08T06:51:03.264Z,32.08
2018-06-08T06:53:31.312Z,32.33
2018-06-08T06:55:59.371Z,32.52
2018-06-08T06:58:27.417Z,32.92
2018-06-08T07:00:55.576Z,33.42
2018-06-08T07:03:23.650Z,33.71
2018-06-08T07:05:51.685Z,33.97
2018-06-08T07:08:20.011Z,34.21
2018-06-08T07:10:48.151Z,34.35
2018-06-08T07:13:16.185Z,34.00
2018-06-08T07:15:44.231Z,34.19
2018-06-08T07:18:12.303Z,34.25
2018-06-08T07:20:40.363Z,34.12
2018-06-08T07:23:08.500Z,34.24
2018-06-08T07:25:36.564Z,33.85
2018-06-08T07:28:04.667Z,34.10
2018-06-08T07:30:32.715Z,34.28
2018-06-08T07:33:00.767Z,34.25
2018-06-08T07:35:28.952Z,34.25
2018-06-08T07:37:57.016Z,34.29
2018-06-08T07:40:25.068Z,34.24
2018-06-08T07:42:53.115Z,34.17
2018-06-08T07:45:21.152Z,34.15
2018-06-08T07:47:49.251Z,33.75
2018-06-08T07:50:17.284Z,34.11
2018-06-08T07:52:45.686Z,34.29
2018-06-08T07:55:13.696Z,34.21
2018-06-08T07:57:41.739Z,34.09
2018-06-08T08:00:09.787Z,34.27
2018-06-08T08:02:37.852Z,34.40
2018-06-08T08:05:05.939Z,34.60
2018-06-08T08:07:34.132Z,34.63
2018-06-08T08:10:02.096Z,34.19
2018-06-08T08:12:30.164Z,34.45
2018-06-08T08:14:58.236Z,34.50
2018-06-08T08:17:26.278Z,33.97
2018-06-08T08:22:28.711Z,33.38
2018-06-08T08:24:56.743Z,33.23
2018-06-08T08:27:24.802Z,33.67
2018-06-08T08:29:52.829Z,33.73
2018-06-08T08:32:20.887Z,33.53
2018-06-08T08:34:48.949Z,33.71
2018-06-08T08:37:16.983Z,33.59
2018-06-08T08:39:45.053Z,33.55
2018-06-08T08:42:13.259Z,33.53
2018-06-08T08:44:41.303Z,33.33
2018-06-08T08:47:09.339Z,33.51
2018-06-08T08:49:37.375Z,33.76
2018-06-08T08:52:05.423Z,33.96
2018-06-08T08:54:33.431Z,34.14
2018-06-08T08:57:01.487Z,34.03
2018-06-08T08:59:29.540Z,33.93
2018-06-08T09:01:57.599Z,33.69
2018-06-08T09:04:25.643Z,33.58
2018-06-08T09:06:53.677Z,33.55
2018-06-08T09:09:21.728Z,33.85
2018-06-08T09:11:49.768Z,33.77
2018-06-08T09:14:17.790Z,33.35
2018-06-08T09:16:45.855Z,33.63
2018-06-08T09:19:13.886Z,33.57
2018-06-08T09:21:41.985Z,33.75
2018-06-08T09:24:10.036Z,33.80
2018-06-08T09:26:38.519Z,34.05
2018-06-08T09:29:06.570Z,34.31
2018-06-08T09:31:35.602Z,34.36
2018-06-08T09:34:03.643Z,34.30
2018-06-08T09:36:31.701Z,34.06
2018-06-08T09:38:59.761Z,34.31
2018-06-08T09:41:27.807Z,34.51
2018-06-08T09:43:55.854Z,34.56
2018-06-08T09:46:24.862Z,34.26
2018-06-08T09:48:52.896Z,34.17
2018-06-08T09:51:21.488Z,34.33
2018-06-08T09:53:49.695Z,34.65
2018-06-08T09:56:17.810Z,34.44
2018-06-08T09:58:45.891Z,34.68
2018-06-08T10:01:13.960Z,34.77
2018-06-08T10:03:41.991Z,34.57
2018-06-08T10:06:10.539Z,34.61
2018-06-08T10:08:38.626Z,34.45
2018-06-08T10:11:06.715Z,33.56
2018-06-08T10:13:34.808Z,33.46
2018-06-08T10:16:02.876Z,33.17
2018-06-08T10:18:30.990Z,33.13
2018-06-08T10:20:59.041Z,33.01
2018-06-08T10:23:27.964Z,32.81
2018-06-08T10:25:56.029Z,32.67
2018-06-08T10:28:24.082Z,32.59
2018-06-08T10:30:52.327Z,32.52
2018-06-08T10:33:20.527Z,32.28
2018-06-08T10:41:43.153Z,31.57
2018-06-08T10:44:11.287Z,31.64
2018-06-08T10:46:39.371Z,31.72
2018-06-08T10:49:07.452Z,31.75
2018-06-08T10:51:35.551Z,31.54
2018-06-08T10:54:03.623Z,31.39
2018-06-08T10:56:37.468Z,31.30
2018-06-08T10:59:05.523Z,31.27
2018-06-08T11:01:33.587Z,31.14
2018-06-08T11:04:01.663Z,31.00
2018-06-08T11:06:29.706Z,30.83
2018-06-08T11:08:57.774Z,30.64
2018-06-08T11:11:25.847Z,30.32
2018-06-08T11:13:54.091Z,30.13
2018-06-08T11:16:22.135Z,29.89
2018-06-08T11:18:50.194Z,29.59
2018-06-08T11:21:18.251Z,29.36
2018-06-08T11:23:46.337Z,29.22
2018-06-08T11:26:14.447Z,29.04
2018-06-08T11:28:42.719Z,28.94
2018-06-08T11:31:10.862Z,28.77
2018-06-08T11:33:38.916Z,28.59
2018-06-08T11:36:06.981Z,28.16
2018-06-08T11:38:35.056Z,27.53
2018-06-08T11:41:03.135Z,26.97
2018-06-08T11:43:31.524Z,26.42
2018-06-08T11:45:59.563Z,25.80
2018-06-08T11:48:27.606Z,24.96
2018-06-08T11:50:55.652Z,24.33
2018-06-08T11:53:23.711Z,23.74
2018-06-08T11:55:51.823Z,23.26
2018-06-08T11:58:19.908Z,22.93
2018-06-08T12:00:48.000Z,22.73
2018-06-08T12:03:16.060Z,22.50
2018-06-08T12:05:44.133Z,22.16
2018-06-08T12:08:12.262Z,21.83
2018-06-08T12:10:40.345Z,21.61
2018-06-08T12:13:08.491Z,21.47
2018-06-08T12:15:36.573Z,21.39
2018-06-08T12:18:04.667Z,21.41
2018-06-08T12:20:32.771Z,21.29
2018-06-08T12:23:00.811Z,21.22
2018-06-08T12:25:28.868Z,21.21
2018-06-08T12:27:56.936Z,21.18
2018-06-08T12:30:25.423Z,21.07
2018-06-08T12:32:53.724Z,21.07
2018-06-08T12:35:21.885Z,21.04
2018-06-08T12:37:49.934Z,21.01
2018-06-08T12:40:18.167Z,21.05
2018-06-08T12:42:47.256Z,21.00
2018-06-08T12:45:15.332Z,20.98
2018-06-08T12:47:43.416Z,21.03
2018-06-08T12:50:11.562Z,21.04
2018-06-08T12:52:39.698Z,21.08
2018-06-08T12:55:07.811Z,21.20
2018-06-08T12:57:36.211Z,21.32
2018-06-08T13:00:04.701Z,21.43
2018-06-08T13:02:32.791Z,21.62
2018-06-08T13:05:00.873Z,21.89
2018-06-08T13:07:29.002Z,22.12
2018-06-08T13:09:57.050Z,22.32
2018-06-08T13:12:25.121Z,22.54
2018-06-08T13:14:53.197Z,22.66
2018-06-08T13:17:21.288Z,22.79
2018-06-08T13:19:49.336Z,22.82
2018-06-08T13:22:17.398Z,22.86
2018-06-08T13:24:45.480Z,22.90
2018-06-08T13:27:13.636Z,22.97
2018-06-08T13:29:41.732Z,22.84
2018-06-08T13:32:09.776Z,22.63
2018-06-08T13:34:37.849Z,22.79
2018-06-08T13:37:05.916Z,22.94
2018-06-08T13:39:34.041Z,22.94
2018-06-08T13:42:02.037Z,23.02
2018-06-08T13:44:30.118Z,23.08
2018-06-08T13:46:58.147Z,23.13
2018-06-08T13:49:26.199Z,23.19
2018-06-08T13:51:54.241Z,23.24
2018-06-08T13:54:22.666Z,23.28
2018-06-08T13:56:51.357Z,23.34
2018-06-08T13:59:19.939Z,23.49
2018-06-08T14:01:47.993Z,23.63
2018-06-08T14:04:16.096Z,23.75
2018-06-08T14:06:44.149Z,23.70
2018-06-08T14:09:12.202Z,23.65
2018-06-08T14:11:40.275Z,23.60
2018-06-08T14:14:08.361Z,23.42
2018-06-08T14:16:36.435Z,23.60
2018-06-08T14:19:04.622Z,23.95
2018-06-08T14:21:32.651Z,23.70
2018-06-08T14:24:00.729Z,23.85
2018-06-08T14:26:28.788Z,23.72
2018-06-08T14:28:56.825Z,23.65
2018-06-08T14:31:24.871Z,23.81
2018-06-08T14:33:52.907Z,24.08
2018-06-08T14:36:20.979Z,24.25
2018-06-08T14:38:49.063Z,24.25
2018-06-08T14:41:17.232Z,24.24
2018-06-08T14:43:45.302Z,24.07
2018-06-08T14:46:13.337Z,24.23
2018-06-08T14:48:41.363Z,24.40
2018-06-08T14:51:09.417Z,24.18
2018-06-08T14:53:37.495Z,24.21
2018-06-08T14:56:06.028Z,24.31
2018-06-08T14:58:34.072Z,24.31
2018-06-08T15:01:02.142Z,24.30
2018-06-08T15:03:30.227Z,24.44
2018-06-08T15:05:58.303Z,24.36
2018-06-08T15:08:26.319Z,24.38
2018-06-08T15:10:54.416Z,24.35
2018-06-08T15:13:22.493Z,24.38
2018-06-08T15:15:50.528Z,24.41
2018-06-08T15:18:18.591Z,24.39
2018-06-08T15:20:46.623Z,24.50
2018-06-08T15:23:14.747Z,24.56
2018-06-08T15:25:42.788Z,24.55
2018-06-08T15:28:10.861Z,24.67
2018-06-08T15:30:38.920Z,24.77
2018-06-08T15:33:06.983Z,24.82
2018-06-08T15:35:35.014Z,24.82
2018-06-08T15:38:03.127Z,24.87
2018-06-08T15:40:31.193Z,24.92
2018-06-08T15:42:59.289Z,25.00
2018-06-08T15:45:27.351Z,25.00
2018-06-08T15:47:55.408Z,25.05
2018-06-08T15:50:23.501Z,25.10
2018-06-08T15:52:51.545Z,25.14
2018-06-08T15:55:19.743Z,25.09
2018-06-08T15:57:47.874Z,25.17
2018-06-08T16:00:15.984Z,25.21
2018-06-08T16:02:44.257Z,25.33
2018-06-08T16:05:12.325Z,25.37
2018-06-08T16:07:40.374Z,25.24
2018-06-08T16:10:08.424Z,25.47
2018-06-08T16:12:36.505Z,25.30
2018-06-08T16:15:04.562Z,25.35
2018-06-08T16:17:32.595Z,25.57
2018-06-08T16:20:00.691Z,25.72
2018-06-08T16:22:28.833Z,25.81
2018-06-08T16:24:56.835Z,25.85
2018-06-08T16:27:24.876Z,25.87
2018-06-08T16:29:58.291Z,25.68
2018-06-08T16:32:26.339Z,25.83
2018-06-08T16:34:54.392Z,25.99
2018-06-08T16:37:22.413Z,25.91
2018-06-08T16:39:50.447Z,26.03
2018-06-08T16:42:18.504Z,26.14
2018-06-08T16:44:46.535Z,26.06
2018-06-08T16:47:14.614Z,26.10
2018-06-08T16:49:42.645Z,26.26
2018-06-08T16:52:10.684Z,26.13
2018-06-08T16:54:38.719Z,26.18
2018-06-08T16:57:06.792Z,26.15
2018-06-08T16:59:37.047Z,26.27
2018-06-08T17:02:05.108Z,26.24
2018-06-08T17:04:33.167Z,26.20
2018-06-08T17:07:01.299Z,26.29
2018-06-08T17:09:29.351Z,26.31
2018-06-08T17:11:57.423Z,26.21
2018-06-08T17:14:25.512Z,26.09
2018-06-08T17:16:53.560Z,26.04
2018-06-08T17:19:21.613Z,26.10
2018-06-08T17:21:50.878Z,26.16
2018-06-08T17:24:18.928Z,26.21
2018-06-08T17:26:47.258Z,26.22
2018-06-08T17:29:15.419Z,26.08
2018-06-08T17:31:43.450Z,26.06
2018-06-08T17:34:11.528Z,26.04
2018-06-08T17:36:39.595Z,26.10
2018-06-08T17:39:08.073Z,26.03
2018-06-08T17:41:36.142Z,25.97
2018-06-08T17:44:04.195Z,25.94
2018-06-08T17:46:32.315Z,25.97
2018-06-08T17:49:00.467Z,25.96
2018-06-08T17:51:28.588Z,25.95
2018-06-08T17:53:56.690Z,25.97
2018-06-08T17:56:24.731Z,26.01
2018-06-08T17:58:52.777Z,26.08
2018-06-08T18:01:20.842Z,26.11
2018-06-08T18:03:48.916Z,26.16
2018-06-08T18:06:16.975Z,26.15
2018-06-08T18:08:45.041Z,26.11
2018-06-08T18:11:13.143Z,26.05
2018-06-08T18:13:41.311Z,25.99
2018-06-08T18:16:09.363Z,25.96
2018-06-08T18:18:37.403Z,25.93
2018-06-08T18:21:05.476Z,25.95
2018-06-08T18:23:33.660Z,25.95
2018-06-08T18:26:01.827Z,25.79
2018-06-08T18:28:30.045Z,25.84
2018-06-08T18:30:58.347Z,25.76
2018-06-08T18:33:26.483Z,25.59
2018-06-08T18:35:55.105Z,25.54
2018-06-08T18:38:23.339Z,25.58
2018-06-08T18:40:51.439Z,25.56
2018-06-08T18:43:20.904Z,25.49
2018-06-08T18:45:49.595Z,25.45
2018-06-08T18:48:18.113Z,25.31
2018-06-08T18:50:46.169Z,25.28
2018-06-08T18:53:14.423Z,25.24
2018-06-08T18:55:42.472Z,25.19
2018-06-08T18:58:10.655Z,25.18
2018-06-08T19:00:38.716Z,25.15
2018-06-08T19:03:07.043Z,25.10
2018-06-08T19:05:35.100Z,24.95
2018-06-08T19:08:03.139Z,24.75
2018-06-08T19:10:31.207Z,24.65
2018-06-08T19:12:59.320Z,24.59
2018-06-08T19:15:27.618Z,24.57
2018-06-08T19:17:55.667Z,24.49
2018-06-08T19:20:23.960Z,24.34
2018-06-08T19:22:52.655Z,24.33
2018-06-08T19:25:20.980Z,24.29
2018-06-08T19:27:49.048Z,24.24
2018-06-08T19:30:17.111Z,24.16
2018-06-08T19:32:45.374Z,24.08
2018-06-08T19:35:13.424Z,24.01
2018-06-08T19:37:41.544Z,23.95
2018-06-08T19:40:09.789Z,23.87
2018-06-08T19:42:37.848Z,23.80
2018-06-08T19:45:05.944Z,23.70
2018-06-08T19:47:34.154Z,23.63
2018-06-08T19:50:02.228Z,23.57
2018-06-08T19:52:30.280Z,23.51
2018-06-08T19:54:58.892Z,23.45
2018-06-08T19:57:27.023Z,23.39
2018-06-08T19:59:55.089Z,23.33
2018-06-08T20:02:23.259Z,23.32
2018-06-08T20:04:51.295Z,23.27
2018-06-08T20:07:19.442Z,23.21
2018-06-08T20:09:47.507Z,23.20
2018-06-08T20:12:15.545Z,23.16
2018-06-08T20:14:43.607Z,23.11
2018-06-08T20:17:11.765Z,23.03
2018-06-08T20:19:39.827Z,22.99
2018-06-08T20:22:07.879Z,22.93
2018-06-08T20:24:36.032Z,22.86
2018-06-08T20:27:04.215Z,22.88
2018-06-08T20:29:32.291Z,22.85
2018-06-08T20:32:00.435Z,22.79
2018-06-08T20:34:28.499Z,22.77
2018-06-08T20:36:56.624Z,22.74
2018-06-08T20:39:24.668Z,22.72
2018-06-08T20:41:52.731Z,22.66
2018-06-08T20:44:20.780Z,22.64
2018-06-08T20:46:48.891Z,22.60
2018-06-08T20:49:16.961Z,22.59
2018-06-08T20:51:45.013Z,22.58
2018-06-08T20:54:13.222Z,22.49
2018-06-08T20:56:41.261Z,22.50
2018-06-08T20:59:09.330Z,22.51
2018-06-08T21:01:37.367Z,22.51
2018-06-08T21:04:05.555Z,22.45
2018-06-08T21:06:33.668Z,22.42
2018-06-08T21:09:01.710Z,22.43
2018-06-08T21:11:29.924Z,22.41
2018-06-08T21:13:57.992Z,22.42
2018-06-08T21:16:26.082Z,22.40
2018-06-08T21:18:54.147Z,22.38
2018-06-08T21:21:22.322Z,22.36
2018-06-08T21:23:50.494Z,22.34
2018-06-08T21:26:18.863Z,22.34
2018-06-08T21:28:46.992Z,22.32
2018-06-08T21:31:15.056Z,22.32
2018-06-08T21:33:43.518Z,22.29
2018-06-08T21:36:11.640Z,22.27
2018-06-08T21:38:39.704Z,22.26
2018-06-08T21:41:08.040Z,22.26
2018-06-08T21:43:36.292Z,22.24
2018-06-08T21:46:04.348Z,22.23
2018-06-08T21:48:32.411Z,22.21
2018-06-08T21:51:00.573Z,22.19
2018-06-08T21:53:28.616Z,22.18
2018-06-08T21:55:57.534Z,22.14
2018-06-08T21:58:26.382Z,22.14
2018-06-08T22:00:54.524Z,22.15
2018-06-08T22:03:22.778Z,22.14
2018-06-08T22:05:52.595Z,22.14
2018-06-08T22:08:20.647Z,22.14
2018-06-08T22:10:48.799Z,22.14
2018-06-08T22:13:16.859Z,22.13
2018-06-08T22:15:45.850Z,22.11
2018-06-08T22:18:15.475Z,22.08
2018-06-08T22:20:44.534Z,22.01
2018-06-08T22:23:13.041Z,22.01
2018-06-08T22:25:41.927Z,22.01
2018-06-08T22:28:14.408Z,21.99
2018-06-08T22:30:43.586Z,21.99
2018-06-08T22:33:12.614Z,21.98
2018-06-08T22:35:41.384Z,21.97
2018-06-08T22:38:09.427Z,21.93
2018-06-08T22:40:38.449Z,21.91
2018-06-08T22:43:06.587Z,21.88
2018-06-08T22:45:34.699Z,21.82
2018-06-08T22:48:03.539Z,21.74
2018-06-08T22:50:31.628Z,21.66
2018-06-08T22:52:59.655Z,21.66
2018-06-08T22:55:28.013Z,21.62
2018-06-08T22:57:56.172Z,21.63
2018-06-08T23:00:25.134Z,21.63
2018-06-08T23:02:53.345Z,21.63
2018-06-08T23:05:22.145Z,21.63
2018-06-08T23:07:50.241Z,21.62
2018-06-08T23:10:18.299Z,21.59
2018-06-08T23:12:46.350Z,21.55
2018-06-08T23:15:14.397Z,21.53
2018-06-08T23:17:42.439Z,21.50
2018-06-08T23:20:10.483Z,21.49
2018-06-08T23:22:38.573Z,21.45
2018-06-08T23:25:06.691Z,21.42
2018-06-08T23:27:34.915Z,21.38
2018-06-08T23:30:03.138Z,21.35
2018-06-08T23:32:31.180Z,21.29
2018-06-08T23:34:59.503Z,21.26
2018-06-08T23:37:27.551Z,21.27
2018-06-08T23:39:55.575Z,21.27
2018-06-08T23:42:23.622Z,21.25
2018-06-08T23:44:51.977Z,21.23
2018-06-08T23:47:20.032Z,21.21
2018-06-08T23:49:48.130Z,21.21
2018-06-08T23:52:16.192Z,21.16
2018-06-08T23:54:44.236Z,21.08
2018-06-08T23:57:12.292Z,21.03
2018-06-08T23:59:40.347Z,20.96
